createdAt,value
2019-03-24T00:02:22.353Z,98947.15
2019-03-24T00:04:57.790Z,98944.98
2019-03-24T00:07:31.435Z,98946.83
2019-03-24T00:10:07.118Z,98940.38
2019-03-24T00:12:42.590Z,98935.43
2019-03-24T00:15:26.131Z,98935.43
2019-03-24T00:17:53.645Z,98928.34
2019-03-24T00:20:28.911Z,98927.27
2019-03-24T00:23:02.622Z,98928.05
2019-03-24T00:25:37.722Z,98928.05
2019-03-24T00:28:13.297Z,98926.06
2019-03-24T00:30:48.758Z,98920.39
2019-03-24T00:33:24.298Z,98905.22
2019-03-24T00:36:00.332Z,98905.22
2019-03-24T00:38:35.953Z,98914.06
2019-03-24T00:41:11.292Z,98914.56
2019-03-24T00:43:46.793Z,98906.36
2019-03-24T00:46:20.572Z,98908.84
2019-03-24T00:48:55.672Z,98908.84
2019-03-24T00:51:31.291Z,98901.28
2019-03-24T00:54:06.681Z,98899.41
2019-03-24T00:56:40.426Z,98900.34
2019-03-24T00:59:15.667Z,98899.12
2019-03-24T01:01:51.130Z,98895.58
2019-03-24T01:04:26.676Z,98895.58
2019-03-24T01:07:02.265Z,98902.97
2019-03-24T01:09:37.677Z,98894.19
2019-03-24T01:12:13.287Z,98892.95
2019-03-24T01:14:48.654Z,98892.95
2019-03-24T01:17:24.113Z,98888.78
2019-03-24T01:19:59.690Z,98891.24
2019-03-24T01:22:35.102Z,98884.61
2019-03-24T01:25:10.897Z,98884.00
2019-03-24T01:27:46.277Z,98890.63
2019-03-24T01:30:22.133Z,98878.41
2019-03-24T01:32:57.683Z,98880.89
2019-03-24T01:35:32.896Z,98879.67
2019-03-24T01:38:08.291Z,98883.22
2019-03-24T01:40:43.688Z,98880.58
2019-03-24T01:43:19.287Z,98881.51
2019-03-24T01:47:58.709Z,98876.12
2019-03-24T01:51:29.657Z,98874.06
2019-03-24T01:54:03.423Z,98876.05
2019-03-24T01:56:38.695Z,98870.77
2019-03-24T01:59:15.291Z,98871.22
2019-03-24T02:01:50.698Z,98872.15
2019-03-24T02:04:26.294Z,98861.94
2019-03-24T02:07:01.724Z,98865.33
2019-03-24T02:09:37.924Z,98861.66
2019-03-24T02:12:11.627Z,98865.98
2019-03-24T02:14:46.805Z,98865.98
2019-03-24T02:17:20.515Z,98867.98
2019-03-24T02:19:55.695Z,98862.43
2019-03-24T02:22:30.606Z,98859.05
2019-03-24T02:25:06.285Z,98861.37
2019-03-24T02:30:25.675Z,98854.44
2019-03-24T02:33:01.125Z,98860.59
2019-03-24T02:35:36.668Z,98849.30
2019-03-24T02:38:12.157Z,98849.30
2019-03-24T02:40:47.682Z,98846.97
2019-03-24T02:43:21.364Z,98846.97
2019-03-24T02:45:56.677Z,98845.10
2019-03-24T02:48:32.322Z,98845.10
2019-03-24T02:51:08.282Z,98845.41
2019-03-24T02:53:43.745Z,98843.25
2019-03-24T02:56:17.342Z,98840.03
2019-03-24T02:58:52.683Z,98836.47
2019-03-24T03:01:28.083Z,98836.32
2019-03-24T03:04:03.681Z,98832.92
2019-03-24T03:06:39.129Z,98832.92
2019-03-24T03:09:14.691Z,98835.09
2019-03-24T03:11:50.120Z,98832.58
2019-03-24T03:14:25.694Z,98827.63
2019-03-24T03:17:01.274Z,98827.63
2019-03-24T03:19:37.019Z,98833.20
2019-03-24T03:22:12.667Z,98837.51
2019-03-24T03:24:48.295Z,98837.51
2019-03-24T03:27:23.917Z,98828.41
2019-03-24T03:29:57.710Z,98821.48
2019-03-24T03:32:32.954Z,98823.03
2019-03-24T03:35:08.908Z,98821.30
2019-03-24T03:37:42.631Z,98822.52
2019-03-24T03:40:18.431Z,98816.03
2019-03-24T03:42:53.963Z,98815.73
2019-03-24T03:45:31.278Z,98817.86
2019-03-24T03:48:06.653Z,98815.57
2019-03-24T03:50:42.274Z,98813.08
2019-03-24T03:53:17.715Z,98816.62
2019-03-24T03:55:51.574Z,98821.39
2019-03-24T03:58:26.787Z,98818.45
2019-03-24T04:01:02.789Z,98816.12
2019-03-24T04:03:36.609Z,98816.60
2019-03-24T04:06:11.857Z,98810.40
2019-03-24T04:08:45.585Z,98811.65
2019-03-24T04:11:20.870Z,98810.56
2019-03-24T04:13:54.601Z,98808.55
2019-03-24T04:16:29.894Z,98805.61
2019-03-24T04:19:05.283Z,98807.92
2019-03-24T04:21:40.687Z,98807.92
2019-03-24T04:24:16.281Z,98799.43
2019-03-24T04:26:51.654Z,98799.43
2019-03-24T04:29:27.255Z,98799.27
2019-03-24T04:32:02.691Z,98799.27
2019-03-24T04:34:38.290Z,98786.47
2019-03-24T04:37:13.760Z,98782.95
2019-03-24T04:39:49.138Z,98784.00
2019-03-24T04:42:24.699Z,98776.58
2019-03-24T04:45:00.256Z,98778.56
2019-03-24T04:47:35.708Z,98769.61
2019-03-24T04:50:11.937Z,98772.09
2019-03-24T04:52:47.281Z,98772.66
2019-03-24T04:55:22.655Z,98771.77
2019-03-24T04:59:23.641Z,98766.69
2019-03-24T05:01:59.304Z,98779.15
2019-03-24T05:04:34.923Z,98768.37
2019-03-24T05:07:10.317Z,98769.11
2019-03-24T05:09:46.276Z,98774.81
2019-03-24T05:12:21.712Z,98774.81
2019-03-24T05:14:57.278Z,98778.98
2019-03-24T05:17:32.718Z,98773.44
2019-03-24T05:20:06.579Z,98767.09
2019-03-24T05:22:42.881Z,98767.88
2019-03-24T05:25:16.556Z,98767.89
2019-03-24T05:27:51.659Z,98767.44
2019-03-24T05:30:27.116Z,98759.41
2019-03-24T05:33:02.527Z,98766.67
2019-03-24T05:35:37.897Z,98766.67
2019-03-24T05:38:13.279Z,98759.91
2019-03-24T05:40:48.690Z,98758.41
2019-03-24T05:43:24.277Z,98755.14
2019-03-24T05:46:00.293Z,98753.59
2019-03-24T05:48:35.683Z,98753.75
2019-03-24T05:51:09.603Z,98755.33
2019-03-24T05:53:44.783Z,98751.03
2019-03-24T05:56:20.265Z,98749.83
2019-03-24T05:58:55.693Z,98750.27
2019-03-24T06:01:31.266Z,98751.17
2019-03-24T06:04:06.687Z,98742.55
2019-03-24T06:06:42.096Z,98749.66
2019-03-24T06:09:17.656Z,98746.73
2019-03-24T06:11:53.112Z,98746.73
2019-03-24T06:14:28.696Z,98747.05
2019-03-24T06:17:04.269Z,98747.05
2019-03-24T06:19:39.694Z,98746.13
2019-03-24T06:22:13.575Z,98740.45
2019-03-24T06:24:48.887Z,98745.53
2019-03-24T06:27:22.591Z,98748.30
2019-03-24T06:29:58.261Z,98743.06
2019-03-24T06:32:33.822Z,98744.30
2019-03-24T06:35:10.259Z,98744.14
2019-03-24T06:37:45.861Z,98745.23
2019-03-24T06:40:19.874Z,98743.80
2019-03-24T06:42:57.728Z,98747.52
2019-03-24T06:47:02.880Z,98746.95
2019-03-24T06:49:36.613Z,98746.95
2019-03-24T06:52:12.097Z,98746.80
2019-03-24T06:57:12.666Z,98747.28
2019-03-24T06:59:48.267Z,98750.34
2019-03-24T07:02:23.689Z,98746.51
2019-03-24T07:04:59.274Z,98750.67
2019-03-24T07:07:34.665Z,98751.45
2019-03-24T07:10:10.427Z,98746.97
2019-03-24T07:12:45.951Z,98744.53
2019-03-24T07:15:21.581Z,98744.53
2019-03-24T07:17:57.269Z,98744.56
2019-03-24T07:20:32.907Z,98739.17
2019-03-24T07:23:08.397Z,98741.50
2019-03-24T07:25:43.939Z,98734.71
2019-03-24T07:28:19.306Z,98736.10
2019-03-24T07:30:55.276Z,98735.16
2019-03-24T07:33:30.751Z,98737.03
2019-03-24T07:36:06.634Z,98735.95
2019-03-24T07:38:42.128Z,98730.86
2019-03-24T07:41:17.829Z,98721.63
2019-03-24T07:43:53.271Z,98717.16
2019-03-24T07:46:28.919Z,98717.16
2019-03-24T07:49:04.640Z,98723.91
2019-03-24T07:54:24.107Z,98710.46
2019-03-24T07:56:59.646Z,98713.19
2019-03-24T07:59:35.287Z,98713.19
2019-03-24T08:02:10.946Z,98705.31
2019-03-24T08:04:46.361Z,98705.60
2019-03-24T08:07:21.943Z,98697.38
2019-03-24T08:09:57.713Z,98694.48
2019-03-24T08:12:32.623Z,98694.48
2019-03-24T08:15:08.277Z,98691.36
2019-03-24T08:17:43.849Z,98694.41
2019-03-24T08:20:19.614Z,98693.30
2019-03-24T08:22:55.271Z,98685.81
2019-03-24T08:25:30.675Z,98685.64
2019-03-24T08:28:04.688Z,98683.00
2019-03-24T08:30:43.109Z,98679.60
2019-03-24T08:33:18.694Z,98681.73
2019-03-24T08:35:52.553Z,98678.64
2019-03-24T08:38:27.849Z,98670.56
2019-03-24T08:41:04.511Z,98678.38
2019-03-24T08:43:39.864Z,98668.00
2019-03-24T08:46:13.587Z,98669.83
2019-03-24T08:48:48.687Z,98666.73
2019-03-24T08:51:24.288Z,98662.05
2019-03-24T08:53:59.704Z,98660.66
2019-03-24T08:56:35.279Z,98659.56
2019-03-24T08:59:10.936Z,98659.68
2019-03-24T09:01:46.734Z,98656.47
2019-03-24T09:04:23.279Z,98654.58
2019-03-24T09:06:59.303Z,98654.58
2019-03-24T09:09:35.444Z,98654.92
2019-03-24T09:12:11.432Z,98657.55
2019-03-24T09:14:47.270Z,98651.56
2019-03-24T09:17:22.740Z,98655.94
2019-03-24T09:19:57.065Z,98649.78
2019-03-24T09:22:32.961Z,98645.19
2019-03-24T09:25:10.768Z,98645.19
2019-03-24T09:27:46.944Z,98639.92
2019-03-24T09:30:37.459Z,98643.33
2019-03-24T09:33:13.270Z,98645.19
2019-03-24T09:35:49.735Z,98640.08
2019-03-24T09:38:24.127Z,98643.95
2019-03-24T09:41:01.005Z,98636.13
2019-03-24T09:43:37.402Z,98636.13
2019-03-24T09:46:13.421Z,98625.45
2019-03-24T09:48:49.646Z,98632.30
2019-03-24T09:51:25.358Z,98620.56
2019-03-24T09:54:01.581Z,98620.56
2019-03-24T09:56:56.303Z,98616.91
2019-03-24T09:59:32.280Z,98613.39
2019-03-24T10:02:08.123Z,98615.98
2019-03-24T10:04:44.297Z,98619.28
2019-03-24T10:07:20.357Z,98617.16
2019-03-24T10:09:56.364Z,98617.16
2019-03-24T10:12:32.118Z,98613.60
2019-03-24T10:15:07.968Z,98607.61
2019-03-24T10:17:43.777Z,98611.95
2019-03-24T10:20:17.588Z,98611.95
2019-03-24T10:22:53.612Z,98613.53
2019-03-24T10:25:29.281Z,98603.83
2019-03-24T10:28:05.480Z,98602.91
2019-03-24T10:30:42.641Z,98597.61
2019-03-24T10:33:18.892Z,98596.67
2019-03-24T10:35:54.901Z,98595.58
2019-03-24T10:38:31.362Z,98585.08
2019-03-24T10:41:09.966Z,98585.08
2019-03-24T10:43:46.304Z,98585.61
2019-03-24T10:46:22.271Z,98585.05
2019-03-24T10:48:58.492Z,98579.02
2019-03-24T10:51:34.267Z,98577.97
2019-03-24T10:54:09.683Z,98579.52
2019-03-24T10:56:43.862Z,98579.52
2019-03-24T10:59:19.129Z,98587.42
2019-03-24T11:01:54.941Z,98573.19
2019-03-24T11:04:30.290Z,98573.03
2019-03-24T11:07:05.653Z,98567.93
2019-03-24T11:09:41.274Z,98562.55
2019-03-24T11:12:16.390Z,98563.80
2019-03-24T11:14:51.875Z,98561.28
2019-03-24T11:17:27.181Z,98556.83
2019-03-24T11:20:02.711Z,98552.19
2019-03-24T11:22:36.557Z,98541.37
2019-03-24T11:25:12.715Z,98544.31
2019-03-24T11:30:11.686Z,98528.41
2019-03-24T11:32:47.276Z,98528.41
2019-03-24T11:35:22.649Z,98527.61
2019-03-24T11:37:58.282Z,98523.39
2019-03-24T11:40:33.780Z,98515.02
2019-03-24T11:43:07.672Z,98514.04
2019-03-24T11:45:43.285Z,98512.19
2019-03-24T11:48:19.290Z,98509.24
2019-03-24T11:50:55.871Z,98502.70
2019-03-24T11:53:31.347Z,98499.45
2019-03-24T11:56:09.290Z,98499.45
2019-03-24T11:58:44.957Z,98493.92
2019-03-24T12:01:20.667Z,98497.95
2019-03-24T12:03:56.285Z,98496.25
2019-03-24T12:06:31.759Z,98489.07
2019-03-24T12:09:06.422Z,98489.07
2019-03-24T12:11:41.680Z,98482.70
2019-03-24T12:14:17.283Z,98479.55
2019-03-24T12:16:52.694Z,98476.81
2019-03-24T12:19:28.282Z,98476.06
2019-03-24T12:22:04.692Z,98467.41
2019-03-24T12:24:38.603Z,98470.95
2019-03-24T12:27:13.901Z,98470.95
2019-03-24T12:29:50.345Z,98464.81
2019-03-24T12:32:25.894Z,98459.81
2019-03-24T12:35:01.330Z,98453.32
2019-03-24T12:37:36.706Z,98455.28
2019-03-24T12:40:12.704Z,98455.28
2019-03-24T12:42:48.281Z,98453.47
2019-03-24T12:45:23.727Z,98458.62
2019-03-24T12:47:57.771Z,98454.30
2019-03-24T12:50:33.283Z,98444.60
2019-03-24T12:53:08.847Z,98450.85
2019-03-24T12:55:45.294Z,98448.42
2019-03-24T12:58:20.691Z,98450.47
2019-03-24T13:00:56.284Z,98449.50
2019-03-24T13:03:31.677Z,98446.87
2019-03-24T13:06:09.358Z,98441.61
2019-03-24T13:08:44.878Z,98430.95
2019-03-24T13:11:18.602Z,98430.17
2019-03-24T13:13:53.880Z,98421.83
2019-03-24T13:16:29.279Z,98424.88
2019-03-24T13:19:04.711Z,98422.19
2019-03-24T13:21:40.273Z,98419.36
2019-03-24T13:24:15.663Z,98420.95
2019-03-24T13:26:50.949Z,98418.31
2019-03-24T13:29:26.285Z,98414.14
2019-03-24T13:32:01.917Z,98415.13
2019-03-24T13:34:37.580Z,98405.28
2019-03-24T13:37:13.265Z,98407.77
2019-03-24T13:39:48.708Z,98404.98
2019-03-24T13:42:24.294Z,98407.34
2019-03-24T13:44:59.681Z,98401.77
2019-03-24T13:47:35.272Z,98401.17
2019-03-24T13:50:10.706Z,98401.17
2019-03-24T13:52:44.564Z,98397.64
2019-03-24T13:58:07.262Z,98398.06
2019-03-24T14:00:42.699Z,98398.06
2019-03-24T14:03:18.275Z,98394.39
2019-03-24T14:05:53.694Z,98394.75
2019-03-24T14:08:27.559Z,98392.48
2019-03-24T14:11:04.371Z,98385.37
2019-03-24T14:13:39.949Z,98384.28
2019-03-24T14:16:15.287Z,98384.28
2019-03-24T14:18:50.672Z,98377.80
2019-03-24T14:21:26.287Z,98377.18
2019-03-24T14:24:01.680Z,98371.62
2019-03-24T14:26:37.258Z,98368.31
2019-03-24T14:29:12.664Z,98375.00
2019-03-24T14:31:48.256Z,98368.51
2019-03-24T14:35:42.660Z,98364.30
2019-03-24T14:38:18.272Z,98363.71
2019-03-24T14:40:54.884Z,98362.17
2019-03-24T14:43:28.554Z,98361.83
2019-03-24T14:46:58.333Z,98351.52
2019-03-24T14:49:33.931Z,98351.52
2019-03-24T14:52:09.329Z,98351.41
2019-03-24T14:54:44.686Z,98350.98
2019-03-24T14:57:20.271Z,98350.98
2019-03-24T14:59:55.694Z,98351.45
2019-03-24T15:02:31.275Z,98343.19
2019-03-24T15:05:07.282Z,98342.14
2019-03-24T15:07:42.662Z,98345.58
2019-03-24T15:10:18.274Z,98351.28
2019-03-24T15:12:53.676Z,98347.58
2019-03-24T15:15:29.276Z,98347.58
2019-03-24T15:18:05.268Z,98350.55
2019-03-24T15:20:40.677Z,98354.99
2019-03-24T15:23:16.280Z,98357.77
2019-03-24T15:25:51.906Z,98357.62
2019-03-24T15:28:25.627Z,98357.92
2019-03-24T15:31:01.765Z,98353.94
2019-03-24T15:33:37.686Z,98358.30
2019-03-24T15:36:13.680Z,98358.30
2019-03-24T15:38:49.289Z,98370.52
2019-03-24T15:41:24.692Z,98369.59
2019-03-24T15:44:00.286Z,98367.30
2019-03-24T15:46:35.678Z,98363.75
2019-03-24T15:49:11.271Z,98360.08
2019-03-24T15:51:46.668Z,98360.08
2019-03-24T15:54:22.277Z,98366.55
2019-03-24T15:56:57.705Z,98363.95
2019-03-24T15:59:33.277Z,98358.43
2019-03-24T16:02:08.696Z,98349.17
2019-03-24T16:04:44.272Z,98349.95
2019-03-24T16:07:19.650Z,98339.91
2019-03-24T16:09:55.271Z,98342.84
2019-03-24T16:12:30.657Z,98338.06
2019-03-24T16:15:06.546Z,98336.98
2019-03-24T16:17:42.286Z,98340.81
2019-03-24T16:20:17.664Z,98341.15
2019-03-24T16:22:53.280Z,98344.70
2019-03-24T16:25:28.583Z,98341.15
2019-03-24T16:28:04.281Z,98332.67
2019-03-24T16:30:39.793Z,98332.67
2019-03-24T16:33:15.289Z,98328.16
2019-03-24T16:35:50.676Z,98333.44
2019-03-24T16:38:26.287Z,98324.00
2019-03-24T16:41:04.301Z,98321.07
2019-03-24T16:43:40.274Z,98322.05
2019-03-24T16:46:15.779Z,98314.49
2019-03-24T16:48:51.315Z,98317.02
2019-03-24T16:51:26.882Z,98315.16
2019-03-24T16:54:02.339Z,98308.86
2019-03-24T16:56:37.749Z,98308.86
2019-03-24T16:59:13.279Z,98305.00
2019-03-24T17:01:48.809Z,98302.84
2019-03-24T17:04:24.914Z,98305.97
2019-03-24T17:07:00.493Z,98306.91
2019-03-24T17:12:00.943Z,98298.72
2019-03-24T17:14:36.398Z,98298.72
2019-03-24T17:17:12.102Z,98304.30
2019-03-24T17:19:47.698Z,98301.70
2019-03-24T17:22:23.279Z,98304.50
2019-03-24T17:24:58.943Z,98304.50
2019-03-24T17:27:32.691Z,98303.88
2019-03-24T17:30:10.339Z,98304.36
2019-03-24T17:32:47.275Z,98293.42
2019-03-24T17:35:23.065Z,98298.06
2019-03-24T17:37:58.783Z,98297.28
2019-03-24T17:42:04.271Z,98300.08
2019-03-24T17:44:40.006Z,98300.08
2019-03-24T17:47:15.665Z,98288.37
2019-03-24T17:49:51.279Z,98288.37
2019-03-24T17:52:26.698Z,98297.30
2019-03-24T17:55:02.379Z,98300.08
2019-03-24T17:57:38.308Z,98293.77
2019-03-24T18:00:16.719Z,98298.84
2019-03-24T18:02:50.810Z,98294.34
2019-03-24T18:05:26.281Z,98288.99
2019-03-24T18:08:01.902Z,98288.99
2019-03-24T18:10:37.729Z,98285.92
2019-03-24T18:13:14.280Z,98285.92
2019-03-24T18:15:49.948Z,98290.67
2019-03-24T18:18:25.685Z,98290.67
2019-03-24T18:21:01.622Z,98284.66
2019-03-24T18:23:37.621Z,98286.06
2019-03-24T18:26:14.297Z,98272.04
2019-03-24T18:28:49.896Z,98275.14
2019-03-24T18:31:23.622Z,98275.14
2019-03-24T18:33:57.300Z,98280.03
2019-03-24T18:36:32.698Z,98286.20
2019-03-24T18:39:11.333Z,98287.28
2019-03-24T18:41:46.948Z,98293.45
2019-03-24T18:44:22.315Z,98287.30
2019-03-24T18:46:57.719Z,98286.52
2019-03-24T18:52:22.599Z,98283.91
2019-03-24T18:54:55.260Z,98283.91
2019-03-24T18:57:30.750Z,98275.12
2019-03-24T19:00:06.763Z,98268.52
2019-03-24T19:02:40.687Z,98266.51
2019-03-24T19:05:16.669Z,98264.67
2019-03-24T19:07:52.321Z,98259.88
2019-03-24T19:10:27.772Z,98252.05
2019-03-24T19:13:03.302Z,98252.05
2019-03-24T19:15:39.314Z,98256.50
2019-03-24T19:18:14.753Z,98254.80
2019-03-24T19:20:50.424Z,98257.57
2019-03-24T19:25:06.271Z,98257.41
2019-03-24T19:27:41.759Z,98257.41
2019-03-24T19:30:16.413Z,98265.72
2019-03-24T19:32:51.750Z,98258.19
2019-03-24T19:35:25.598Z,98255.41
2019-03-24T19:38:02.665Z,98258.31
2019-03-24T19:40:38.588Z,98261.41
2019-03-24T19:43:14.276Z,98257.25
2019-03-24T19:45:49.722Z,98256.48
2019-03-24T19:48:23.618Z,98254.93
2019-03-24T19:50:58.876Z,98252.00
2019-03-24T19:53:34.732Z,98253.06
2019-03-24T19:56:11.554Z,98255.98
2019-03-24T19:58:46.971Z,98248.91
2019-03-24T20:01:22.660Z,98245.66
2019-03-24T20:03:58.277Z,98245.66
2019-03-24T20:06:33.709Z,98238.61
2019-03-24T20:09:11.707Z,98235.84
2019-03-24T20:11:47.368Z,98239.38
2019-03-24T20:16:02.703Z,98233.52
2019-03-24T20:18:38.557Z,98233.52
2019-03-24T20:21:14.275Z,98233.36
2019-03-24T20:23:49.695Z,98228.72
2019-03-24T20:26:23.561Z,98217.98
2019-03-24T20:28:59.947Z,98216.11
2019-03-24T20:31:35.331Z,98210.45
2019-03-24T20:34:10.957Z,98210.45
2019-03-24T20:36:46.350Z,98210.73
2019-03-24T20:39:22.097Z,98208.25
2019-03-24T20:41:57.704Z,98206.73
2019-03-24T20:44:33.280Z,98211.19
2019-03-24T20:47:11.911Z,98205.20
2019-03-24T20:49:47.343Z,98208.73
2019-03-24T20:52:22.877Z,98206.75
2019-03-24T20:54:58.287Z,98200.12
2019-03-24T20:57:34.280Z,98192.75
2019-03-24T21:00:11.285Z,98189.09
2019-03-24T21:02:46.949Z,98190.27
2019-03-24T21:05:22.686Z,98188.27
2019-03-24T21:07:59.664Z,98188.27
2019-03-24T21:10:35.294Z,98188.88
2019-03-24T21:13:11.665Z,98189.33
2019-03-24T21:15:47.279Z,98186.23
2019-03-24T21:18:22.738Z,98186.56
2019-03-24T21:20:58.290Z,98183.19
2019-03-24T21:23:33.948Z,98187.95
2019-03-24T21:26:11.437Z,98179.04
2019-03-24T21:28:46.695Z,98182.13
2019-03-24T21:31:22.288Z,98173.50
2019-03-24T21:33:57.955Z,98168.25
2019-03-24T21:36:31.710Z,98171.95
2019-03-24T21:39:09.280Z,98175.05
2019-03-24T21:41:44.695Z,98166.30
2019-03-24T21:44:20.294Z,98177.04
2019-03-24T21:46:55.718Z,98166.75
2019-03-24T21:49:31.346Z,98160.28
2019-03-24T21:53:43.344Z,98155.23
2019-03-24T21:56:18.965Z,98160.56
2019-03-24T21:58:54.647Z,98152.42
2019-03-24T22:01:30.290Z,98152.42
2019-03-24T22:04:05.756Z,98159.14
2019-03-24T22:06:40.304Z,98151.59
2019-03-24T22:09:16.402Z,98151.30
2019-03-24T22:11:52.317Z,98154.52
2019-03-24T22:14:28.327Z,98156.98
2019-03-24T22:17:04.508Z,98157.27
2019-03-24T22:19:40.308Z,98151.57
2019-03-24T22:22:16.309Z,98154.01
2019-03-24T22:24:52.383Z,98142.50
2019-03-24T22:27:28.398Z,98140.50
2019-03-24T22:30:03.929Z,98141.23
2019-03-24T22:32:39.984Z,98127.57
2019-03-24T22:35:16.525Z,98128.18
2019-03-24T22:37:52.572Z,98125.07
2019-03-24T22:40:28.589Z,98118.33
2019-03-24T22:43:04.346Z,98123.68
2019-03-24T22:45:40.291Z,98118.91
2019-03-24T22:48:16.318Z,98110.56
2019-03-24T22:50:52.288Z,98115.14
2019-03-24T22:53:28.304Z,98107.80
2019-03-24T22:56:05.550Z,98095.82
2019-03-24T22:58:41.371Z,98108.41
2019-03-24T23:01:18.592Z,98099.23
2019-03-24T23:03:54.587Z,98098.47
2019-03-24T23:06:30.440Z,98097.86
2019-03-24T23:09:07.291Z,98098.62
2019-03-24T23:11:42.706Z,98095.86
2019-03-24T23:16:42.311Z,98089.08
2019-03-24T23:19:18.510Z,98081.84
2019-03-24T23:21:54.625Z,98080.61
2019-03-24T23:24:30.686Z,98077.50
2019-03-24T23:27:06.682Z,98072.30
2019-03-24T23:29:42.524Z,98072.27
2019-03-24T23:32:18.392Z,98070.16
2019-03-24T23:34:54.303Z,98074.58
2019-03-24T23:37:30.357Z,98069.48
2019-03-24T23:40:06.870Z,98063.50
2019-03-24T23:42:42.327Z,98066.71
2019-03-24T23:45:18.294Z,98066.71
2019-03-24T23:47:53.962Z,98067.48
2019-03-24T23:50:28.107Z,98057.92
2019-03-24T23:53:01.710Z,98054.55
2019-03-24T23:55:37.372Z,98047.66
2019-03-24T23:58:13.779Z,98054.55
